createdAt,value
2017-08-04T00:01:31.623Z,85.40
2017-08-04T00:03:59.936Z,85.40
2017-08-04T00:06:28.972Z,84.70
2017-08-04T00:08:57.247Z,84.70
2017-08-04T00:11:25.560Z,85.10
2017-08-04T00:13:53.828Z,85.60
2017-08-04T00:16:22.096Z,85.70
2017-08-04T00:18:51.283Z,85.20
2017-08-04T00:21:19.559Z,86.00
2017-08-04T00:23:47.853Z,86.30
2017-08-04T00:26:16.159Z,87.10
2017-08-04T00:28:44.436Z,87.00
2017-08-04T00:31:12.703Z,87.10
2017-08-04T00:33:41.102Z,86.60
2017-08-04T00:36:09.390Z,87.30
2017-08-04T00:38:38.415Z,87.70
2017-08-04T00:41:06.744Z,87.60
2017-08-04T00:43:35.779Z,87.90
2017-08-04T00:46:04.051Z,87.80
2017-08-04T00:48:32.363Z,88.30
2017-08-04T00:51:00.631Z,88.30
2017-08-04T00:53:29.644Z,87.90
2017-08-04T00:55:58.284Z,86.90
2017-08-04T00:58:26.556Z,86.40
2017-08-04T01:00:54.839Z,87.20
2017-08-04T01:03:23.131Z,87.40
2017-08-04T01:05:51.404Z,87.70
2017-08-04T01:08:19.679Z,87.80
2017-08-04T01:10:48.095Z,87.90
2017-08-04T01:13:16.358Z,88.80
2017-08-04T01:15:45.396Z,88.00
2017-08-04T01:18:13.686Z,87.90
2017-08-04T01:20:41.967Z,88.00
2017-08-04T01:23:10.240Z,87.90
2017-08-04T01:25:39.310Z,87.90
2017-08-04T01:28:08.344Z,88.70
2017-08-04T01:30:36.604Z,88.10
2017-08-04T01:33:04.913Z,87.60
2017-08-04T01:35:33.947Z,87.80
2017-08-04T01:38:02.216Z,87.70
2017-08-04T01:40:30.528Z,87.30
2017-08-04T01:42:58.791Z,87.10
2017-08-04T01:45:27.068Z,87.20
2017-08-04T01:47:55.492Z,87.40
2017-08-04T01:50:24.536Z,87.70
2017-08-04T01:52:52.804Z,87.60
2017-08-04T01:55:21.107Z,87.90
2017-08-04T01:57:50.153Z,87.10
2017-08-04T02:00:18.424Z,87.00
2017-08-04T02:02:46.743Z,86.70
2017-08-04T02:05:15.012Z,86.40
2017-08-04T02:07:43.280Z,86.80
2017-08-04T02:10:11.683Z,86.90
2017-08-04T02:12:40.728Z,86.30
2017-08-04T02:15:08.996Z,86.30
2017-08-04T02:17:37.303Z,85.70
2017-08-04T02:20:05.571Z,85.50
2017-08-04T02:22:33.839Z,86.00
2017-08-04T02:25:02.137Z,85.70
2017-08-04T02:27:30.404Z,86.10
2017-08-04T02:29:58.676Z,86.30
2017-08-04T02:32:27.749Z,87.50
2017-08-04T02:34:56.028Z,87.40
2017-08-04T02:37:24.289Z,87.30
2017-08-04T02:39:52.759Z,87.20
2017-08-04T02:42:21.783Z,87.30
2017-08-04T02:44:50.047Z,87.30
2017-08-04T02:47:18.355Z,86.90
2017-08-04T02:49:46.620Z,86.30
2017-08-04T02:52:14.879Z,86.40
2017-08-04T02:54:44.068Z,86.10
2017-08-04T02:57:13.095Z,85.50
2017-08-04T02:59:41.363Z,84.70
2017-08-04T03:02:09.668Z,85.30
2017-08-04T03:04:38.700Z,82.70
2017-08-04T03:07:06.980Z,82.60
2017-08-04T03:09:35.267Z,82.10
2017-08-04T03:12:04.299Z,83.10
2017-08-04T03:14:32.563Z,82.20
2017-08-04T03:17:00.873Z,81.00
2017-08-04T03:19:29.908Z,80.10
2017-08-04T03:21:58.175Z,80.00
2017-08-04T03:24:26.478Z,80.60
2017-08-04T03:26:55.519Z,76.70
2017-08-04T03:29:23.779Z,76.60
2017-08-04T03:31:52.572Z,80.00
2017-08-04T03:34:20.840Z,79.60
2017-08-04T03:36:49.107Z,75.20
2017-08-04T03:39:17.417Z,76.50
2017-08-04T03:41:45.679Z,77.50
2017-08-04T03:44:13.952Z,78.20
2017-08-04T03:46:42.260Z,76.40
2017-08-04T03:49:11.293Z,72.90
2017-08-04T03:51:39.560Z,72.90
2017-08-04T03:54:07.877Z,72.90
2017-08-04T03:56:36.144Z,73.00
2017-08-04T03:59:04.412Z,73.50
2017-08-04T04:01:32.831Z,73.00
2017-08-04T04:04:01.104Z,73.10
2017-08-04T04:06:30.132Z,74.80
2017-08-04T04:08:58.435Z,74.80
2017-08-04T04:11:26.728Z,74.90
2017-08-04T04:13:54.987Z,74.90
2017-08-04T04:16:23.285Z,74.20
2017-08-04T04:18:51.552Z,74.50
2017-08-04T04:21:19.831Z,74.10
2017-08-04T04:23:48.139Z,76.30
2017-08-04T04:26:16.399Z,74.50
2017-08-04T04:28:44.679Z,75.20
2017-08-04T04:31:12.990Z,73.00
2017-08-04T04:33:42.023Z,72.50
2017-08-04T04:36:10.300Z,72.50
2017-08-04T04:38:38.701Z,74.10
2017-08-04T04:41:07.832Z,71.60
2017-08-04T04:43:36.108Z,71.50
2017-08-04T04:46:04.420Z,73.90
2017-08-04T04:48:32.687Z,74.50
2017-08-04T04:53:36.228Z,75.60
2017-08-04T04:56:04.502Z,75.60
2017-08-04T04:58:32.767Z,75.40
2017-08-04T05:01:02.167Z,76.30
2017-08-04T05:03:30.415Z,76.30
2017-08-04T05:05:59.452Z,77.50
2017-08-04T05:08:27.774Z,77.40
2017-08-04T05:10:56.811Z,77.90
2017-08-04T05:13:25.070Z,77.70
2017-08-04T05:15:53.376Z,77.10
2017-08-04T05:18:22.407Z,77.90
2017-08-04T05:20:50.672Z,77.90
2017-08-04T05:23:19.008Z,77.70
2017-08-04T05:25:47.280Z,77.20
2017-08-04T05:28:15.552Z,75.80
2017-08-04T05:30:43.852Z,74.90
2017-08-04T05:33:12.879Z,70.00
2017-08-04T05:35:41.153Z,69.80
2017-08-04T05:38:09.464Z,71.80
2017-08-04T05:40:38.504Z,71.70
2017-08-04T05:43:07.097Z,71.60
2017-08-04T05:45:36.156Z,70.30
2017-08-04T05:48:04.415Z,70.00
2017-08-04T05:50:32.700Z,69.60
2017-08-04T05:53:01.776Z,69.50
2017-08-04T05:55:30.030Z,69.10
2017-08-04T05:57:58.300Z,67.70
2017-08-04T06:00:27.376Z,66.30
2017-08-04T06:02:55.661Z,66.20
2017-08-04T06:05:24.687Z,65.30
2017-08-04T06:07:53.188Z,65.20
2017-08-04T06:10:22.228Z,67.10
2017-08-04T06:12:50.505Z,67.10
2017-08-04T06:15:18.823Z,66.80
2017-08-04T06:17:47.080Z,67.80
2017-08-04T06:20:15.347Z,68.10
2017-08-04T06:22:43.668Z,68.80
2017-08-04T06:25:11.941Z,68.60
2017-08-04T06:27:40.979Z,68.00
2017-08-04T06:30:09.264Z,68.00
2017-08-04T06:32:37.536Z,66.90
2017-08-04T06:35:06.571Z,68.80
2017-08-04T06:37:34.867Z,68.00
2017-08-04T06:40:03.139Z,65.10
2017-08-04T06:42:32.172Z,65.20
2017-08-04T06:45:00.464Z,65.10
2017-08-04T06:47:28.733Z,65.20
2017-08-04T06:50:08.827Z,64.80
2017-08-04T06:52:49.007Z,65.20
2017-08-04T06:55:29.270Z,64.70
2017-08-04T06:57:58.321Z,63.10
2017-08-04T07:00:26.592Z,63.00
2017-08-04T07:02:54.968Z,63.50
2017-08-04T07:05:24.012Z,60.50
2017-08-04T07:07:52.296Z,60.50
2017-08-04T07:10:21.421Z,60.80
2017-08-04T07:12:49.709Z,60.00
2017-08-04T07:15:17.984Z,59.80
2017-08-04T07:17:46.344Z,61.70
2017-08-04T07:20:14.611Z,61.00
2017-08-04T07:22:42.896Z,60.30
2017-08-04T07:25:11.960Z,59.80
2017-08-04T07:27:41.003Z,59.60
2017-08-04T07:30:09.272Z,58.80
2017-08-04T07:32:37.592Z,57.40
2017-08-04T07:35:05.855Z,57.50
2017-08-04T07:37:34.344Z,58.10
2017-08-04T07:40:02.660Z,57.80
2017-08-04T07:42:30.924Z,56.40
2017-08-04T07:44:59.964Z,54.60
2017-08-04T07:47:28.272Z,54.50
2017-08-04T07:49:57.312Z,54.70
2017-08-04T07:52:25.585Z,54.70
2017-08-04T07:54:53.887Z,56.10
2017-08-04T07:57:22.160Z,55.90
2017-08-04T07:59:51.691Z,56.60
2017-08-04T08:02:19.995Z,56.10
2017-08-04T08:04:48.273Z,56.80
2017-08-04T08:07:16.540Z,55.40
2017-08-04T08:09:44.863Z,55.00
2017-08-04T08:12:13.904Z,55.00
2017-08-04T08:14:42.188Z,55.00
2017-08-04T08:17:10.491Z,54.30
2017-08-04T08:19:38.771Z,56.50
2017-08-04T08:22:07.037Z,55.00
2017-08-04T08:24:35.368Z,54.00
2017-08-04T08:27:03.644Z,53.80
2017-08-04T08:29:31.920Z,54.40
2017-08-04T08:32:00.231Z,54.20
2017-08-04T08:34:29.272Z,53.70
2017-08-04T08:36:57.548Z,53.70
2017-08-04T08:39:25.847Z,52.40
2017-08-04T08:41:54.123Z,53.90
2017-08-04T08:44:22.391Z,53.90
2017-08-04T08:46:50.707Z,54.50
2017-08-04T08:49:19.759Z,54.20
2017-08-04T08:51:49.255Z,53.60
2017-08-04T08:54:17.567Z,53.20
2017-08-04T08:56:45.863Z,51.60
2017-08-04T08:59:14.145Z,51.90
2017-08-04T09:01:42.455Z,51.00
2017-08-04T09:04:10.739Z,49.60
2017-08-04T09:06:38.995Z,51.60
2017-08-04T09:09:07.307Z,49.20
2017-08-04T09:11:35.575Z,49.50
2017-08-04T09:14:04.621Z,49.50
2017-08-04T09:16:32.971Z,49.50
2017-08-04T09:19:01.248Z,47.70
2017-08-04T09:21:29.520Z,46.00
2017-08-04T09:23:58.816Z,48.50
2017-08-04T09:26:27.092Z,48.00
2017-08-04T09:28:56.146Z,47.30
2017-08-04T09:31:25.439Z,47.20
2017-08-04T09:33:53.711Z,46.30
2017-08-04T09:36:22.755Z,47.90
2017-08-04T09:38:51.087Z,47.90
2017-08-04T09:41:19.364Z,45.70
2017-08-04T09:43:47.636Z,47.00
2017-08-04T09:46:15.964Z,46.90
2017-08-04T09:48:44.244Z,46.80
2017-08-04T09:51:12.516Z,48.60
2017-08-04T09:53:40.819Z,47.00
2017-08-04T09:58:44.631Z,47.60
2017-08-04T10:01:14.591Z,45.50
2017-08-04T10:03:42.859Z,45.50
2017-08-04T10:06:11.175Z,45.60
2017-08-04T10:08:39.504Z,44.90
2017-08-04T10:11:08.561Z,47.40
2017-08-04T10:13:36.868Z,47.50
2017-08-04T10:16:05.136Z,45.80
2017-08-04T10:18:33.416Z,48.00
2017-08-04T10:21:01.728Z,46.90
2017-08-04T10:23:30.768Z,46.40
2017-08-04T10:25:59.047Z,46.50
2017-08-04T10:28:27.348Z,47.10
2017-08-04T10:30:56.385Z,46.10
2017-08-04T10:33:24.664Z,46.00
2017-08-04T10:35:53.152Z,47.40
2017-08-04T10:38:22.183Z,46.00
2017-08-04T10:40:50.455Z,46.00
2017-08-04T10:43:18.805Z,46.80
2017-08-04T10:45:47.068Z,45.00
2017-08-04T10:48:15.344Z,47.30
2017-08-04T10:50:43.651Z,44.90
2017-08-04T10:53:11.933Z,44.60
2017-08-04T10:55:40.203Z,42.40
2017-08-04T10:58:08.516Z,39.70
2017-08-04T11:00:37.561Z,40.70
2017-08-04T11:03:05.836Z,40.60
2017-08-04T11:05:34.131Z,40.80
2017-08-04T11:08:02.431Z,42.50
2017-08-04T11:10:30.695Z,43.20
2017-08-04T11:12:59.196Z,45.10
2017-08-04T11:15:28.240Z,44.70
2017-08-04T11:17:56.507Z,44.10
2017-08-04T11:20:24.819Z,44.40
2017-08-04T11:22:53.095Z,44.20
2017-08-04T11:25:21.372Z,43.00
2017-08-04T11:27:49.675Z,43.80
2017-08-04T11:30:17.953Z,43.20
2017-08-04T11:32:46.228Z,43.00
2017-08-04T11:35:14.544Z,42.10
2017-08-04T11:37:42.811Z,45.10
2017-08-04T11:40:11.088Z,43.80
2017-08-04T11:42:40.180Z,45.10
2017-08-04T11:45:09.228Z,43.50
2017-08-04T11:47:37.504Z,44.10
2017-08-04T11:50:05.804Z,44.90
2017-08-04T11:52:34.084Z,43.70
2017-08-04T11:55:02.357Z,46.60
2017-08-04T11:57:30.679Z,42.40
2017-08-04T11:59:58.971Z,41.80
2017-08-04T12:02:27.388Z,42.90
2017-08-04T12:04:56.677Z,40.40
2017-08-04T12:07:25.720Z,40.20
2017-08-04T12:09:53.987Z,40.20
2017-08-04T12:12:22.312Z,40.30
2017-08-04T12:14:50.873Z,41.00
2017-08-04T12:17:19.160Z,39.30
2017-08-04T12:19:47.560Z,37.00
2017-08-04T12:22:15.828Z,38.60
2017-08-04T12:24:44.872Z,35.60
2017-08-04T12:27:13.192Z,35.60
2017-08-04T12:29:41.459Z,36.20
2017-08-04T12:32:09.748Z,37.70
2017-08-04T12:34:38.060Z,36.40
2017-08-04T12:37:07.100Z,37.70
2017-08-04T12:39:35.371Z,37.80
2017-08-04T12:42:03.768Z,37.30
2017-08-04T12:44:32.824Z,36.40
2017-08-04T12:47:01.879Z,37.40
2017-08-04T12:49:30.225Z,37.40
2017-08-04T12:51:58.485Z,36.70
2017-08-04T12:54:26.760Z,36.00
2017-08-04T12:56:55.076Z,34.80
2017-08-04T12:59:24.107Z,36.40
2017-08-04T13:01:52.435Z,36.40
2017-08-04T13:04:20.752Z,35.40
2017-08-04T13:06:49.023Z,37.20
2017-08-04T13:09:18.063Z,35.30
2017-08-04T13:11:46.377Z,35.50
2017-08-04T13:14:15.419Z,37.40
2017-08-04T13:16:43.700Z,37.40
2017-08-04T13:19:12.008Z,36.10
2017-08-04T13:21:40.285Z,35.20
2017-08-04T13:24:08.563Z,37.60
2017-08-04T13:26:36.868Z,35.80
2017-08-04T13:29:06.157Z,36.80
2017-08-04T13:31:34.447Z,36.80
2017-08-04T13:34:02.752Z,37.40
2017-08-04T13:36:31.019Z,36.40
2017-08-04T13:38:59.296Z,37.00
2017-08-04T13:41:28.385Z,39.60
2017-08-04T13:43:56.660Z,39.50
2017-08-04T13:46:24.987Z,38.50
2017-08-04T13:48:54.072Z,40.90
2017-08-04T13:51:23.376Z,39.70
2017-08-04T13:53:51.656Z,39.60
2017-08-04T13:56:19.968Z,41.10
2017-08-04T13:58:48.243Z,39.50
2017-08-04T14:01:17.288Z,40.80
2017-08-04T14:03:45.594Z,40.90
2017-08-04T14:06:14.636Z,39.50
2017-08-04T14:08:42.900Z,39.50
2017-08-04T14:11:11.225Z,41.60
2017-08-04T14:13:39.496Z,39.10
2017-08-04T14:16:08.008Z,38.70
2017-08-04T14:18:37.071Z,38.40
2017-08-04T14:21:05.343Z,38.10
2017-08-04T14:23:33.615Z,37.50
2017-08-04T14:26:02.697Z,39.80
2017-08-04T14:28:31.735Z,36.40
2017-08-04T14:31:00.012Z,36.40
2017-08-04T14:33:28.315Z,37.30
2017-08-04T14:35:56.597Z,37.20
2017-08-04T14:38:24.988Z,37.50
2017-08-04T14:40:53.283Z,37.50
2017-08-04T14:43:22.324Z,38.00
2017-08-04T14:45:50.591Z,37.90
2017-08-04T14:48:18.916Z,37.70
2017-08-04T14:50:47.187Z,38.40
2017-08-04T14:53:15.455Z,39.30
2017-08-04T14:55:43.777Z,39.60
2017-08-04T14:58:12.807Z,40.10
2017-08-04T15:00:41.080Z,40.00
2017-08-04T15:03:09.581Z,40.10
2017-08-04T15:05:38.615Z,40.10
2017-08-04T15:08:06.900Z,40.10
2017-08-04T15:10:35.204Z,40.90
2017-08-04T15:13:03.473Z,38.60
2017-08-04T15:15:32.621Z,39.70
2017-08-04T15:18:01.060Z,39.40
2017-08-04T15:20:29.336Z,39.00
2017-08-04T15:22:57.616Z,38.50
2017-08-04T15:25:26.120Z,38.50
2017-08-04T15:27:55.171Z,36.90
2017-08-04T15:30:23.445Z,36.20
2017-08-04T15:32:51.759Z,36.90
2017-08-04T15:35:20.054Z,38.60
2017-08-04T15:37:48.336Z,35.70
2017-08-04T15:40:16.648Z,36.70
2017-08-04T15:42:44.924Z,36.40
2017-08-04T15:45:13.199Z,36.60
2017-08-04T15:47:41.513Z,36.80
2017-08-04T15:50:09.779Z,37.00
2017-08-04T15:52:38.072Z,36.40
2017-08-04T15:55:06.379Z,36.30
2017-08-04T15:57:35.420Z,33.60
2017-08-04T16:00:03.696Z,33.50
2017-08-04T16:02:32.011Z,32.90
2017-08-04T16:05:00.289Z,33.90
2017-08-04T16:07:28.564Z,32.10
2017-08-04T16:09:56.880Z,32.70
2017-08-04T16:12:25.156Z,34.90
2017-08-04T16:14:53.440Z,34.30
2017-08-04T16:17:21.756Z,35.30
2017-08-04T16:19:50.815Z,35.50
2017-08-04T16:22:19.084Z,35.40
2017-08-04T16:24:47.400Z,34.60
2017-08-04T16:27:15.676Z,35.60
2017-08-04T16:29:43.943Z,36.10
2017-08-04T16:32:12.272Z,36.40
2017-08-04T16:34:40.544Z,37.50
2017-08-04T16:37:08.816Z,37.80
2017-08-04T16:39:37.120Z,37.00
2017-08-04T16:42:06.168Z,37.50
2017-08-04T16:44:34.440Z,37.50
2017-08-04T16:47:02.743Z,37.90
2017-08-04T16:49:31.025Z,36.70
2017-08-04T16:51:59.299Z,37.30
2017-08-04T16:54:27.608Z,36.30
2017-08-04T16:56:55.876Z,35.50
2017-08-04T16:59:24.932Z,35.30
2017-08-04T17:01:53.254Z,35.30
2017-08-04T17:04:21.532Z,37.00
2017-08-04T17:06:49.799Z,37.20
2017-08-04T17:09:18.108Z,36.90
2017-08-04T17:11:47.148Z,37.30
2017-08-04T17:14:15.416Z,37.30
2017-08-04T17:16:43.740Z,37.90
2017-08-04T17:19:12.003Z,38.50
2017-08-04T17:21:40.283Z,39.00
2017-08-04T17:24:08.592Z,39.30
2017-08-04T17:26:37.801Z,39.40
2017-08-04T17:29:06.069Z,39.40
2017-08-04T17:31:34.375Z,39.10
2017-08-04T17:34:02.653Z,40.60
2017-08-04T17:36:31.683Z,40.00
2017-08-04T17:39:00.008Z,39.80
2017-08-04T17:41:28.276Z,40.60
2017-08-04T17:43:56.556Z,40.00
2017-08-04T17:46:24.860Z,40.50
2017-08-04T17:48:53.163Z,41.10
2017-08-04T17:51:21.428Z,41.30
2017-08-04T17:53:49.739Z,41.80
2017-08-04T17:56:18.014Z,41.20
2017-08-04T17:58:46.280Z,42.10
2017-08-04T18:01:15.347Z,43.00
2017-08-04T18:03:43.616Z,42.30
2017-08-04T18:06:12.247Z,43.30
2017-08-04T18:08:40.567Z,42.40
2017-08-04T18:11:09.956Z,42.90
2017-08-04T18:13:38.987Z,43.10
2017-08-04T18:16:07.305Z,43.80
2017-08-04T18:18:35.573Z,43.10
2017-08-04T18:21:04.583Z,42.70
2017-08-04T18:23:33.196Z,43.20
2017-08-04T18:26:02.241Z,43.10
2017-08-04T18:28:30.507Z,43.00
2017-08-04T18:30:58.963Z,43.10
2017-08-04T18:33:27.256Z,43.30
2017-08-04T18:35:56.300Z,44.60
2017-08-04T18:38:24.672Z,44.40
2017-08-04T18:40:52.944Z,43.20
2017-08-04T18:43:21.224Z,42.80
2017-08-04T18:45:50.304Z,43.30
2017-08-04T18:48:19.346Z,42.90
2017-08-04T18:50:47.600Z,42.90
2017-08-04T18:53:15.917Z,42.70
2017-08-04T18:55:44.957Z,44.80
2017-08-04T18:58:13.215Z,44.70
2017-08-04T19:00:41.531Z,44.30
2017-08-04T19:03:09.792Z,43.80
2017-08-04T19:05:38.068Z,44.00
2017-08-04T19:08:06.399Z,45.00
2017-08-04T19:10:35.449Z,45.20
2017-08-04T19:13:03.718Z,45.10
2017-08-04T19:15:32.039Z,45.00
2017-08-04T19:18:00.308Z,45.10
2017-08-04T19:20:29.592Z,45.60
2017-08-04T19:22:57.997Z,45.30
2017-08-04T19:25:26.275Z,45.60
2017-08-04T19:27:55.313Z,46.50
2017-08-04T19:30:23.612Z,46.40
2017-08-04T19:32:52.652Z,46.50
2017-08-04T19:35:20.924Z,46.40
2017-08-04T19:37:49.228Z,46.40
2017-08-04T19:40:17.496Z,47.00
2017-08-04T19:42:45.811Z,47.50
2017-08-04T19:45:14.116Z,48.00
2017-08-04T19:47:42.387Z,49.00
2017-08-04T19:50:10.664Z,48.70
2017-08-04T19:52:38.963Z,49.10
2017-08-04T19:55:07.228Z,48.80
2017-08-04T19:57:35.692Z,49.40
2017-08-04T20:00:04.975Z,50.70
2017-08-04T20:02:33.248Z,50.20
2017-08-04T20:05:02.284Z,50.20
2017-08-04T20:07:30.693Z,50.20
2017-08-04T20:10:01.664Z,51.50
2017-08-04T20:12:29.947Z,51.40
2017-08-04T20:14:58.227Z,51.60
2017-08-04T20:17:26.505Z,52.00
2017-08-04T20:19:55.732Z,53.20
2017-08-04T20:22:24.011Z,53.20
2017-08-04T20:24:52.283Z,53.80
2017-08-04T20:27:20.589Z,54.00
2017-08-04T20:29:48.872Z,54.30
2017-08-04T20:32:17.131Z,54.40
2017-08-04T20:34:45.456Z,55.00
2017-08-04T20:37:14.488Z,55.40
2017-08-04T20:39:42.752Z,55.20
2017-08-04T20:42:11.051Z,55.90
2017-08-04T20:44:39.603Z,55.50
2017-08-04T20:47:07.878Z,55.10
2017-08-04T20:49:36.174Z,54.70
2017-08-04T20:52:04.444Z,53.80
2017-08-04T20:54:33.635Z,55.80
2017-08-04T20:57:01.951Z,55.70
2017-08-04T20:59:30.985Z,55.20
2017-08-04T21:01:59.252Z,55.10
2017-08-04T21:04:27.556Z,55.80
2017-08-04T21:06:56.579Z,55.90
2017-08-04T21:09:24.848Z,55.80
2017-08-04T21:11:53.360Z,57.20
2017-08-04T21:14:22.384Z,58.20
2017-08-04T21:16:50.666Z,57.50
2017-08-04T21:19:19.464Z,57.60
2017-08-04T21:21:48.728Z,59.10
2017-08-04T21:24:17.000Z,59.10
2017-08-04T21:26:45.297Z,59.40
2017-08-04T21:29:13.572Z,59.10
2017-08-04T21:31:41.836Z,59.30
2017-08-04T21:34:10.144Z,59.40
2017-08-04T21:36:38.404Z,60.20
2017-08-04T21:39:06.676Z,60.40
2017-08-04T21:41:34.996Z,60.40
2017-08-04T21:44:03.255Z,61.30
2017-08-04T21:46:31.519Z,61.90
2017-08-04T21:48:59.940Z,61.90
2017-08-04T21:51:28.996Z,62.60
2017-08-04T21:53:57.271Z,62.50
2017-08-04T21:56:25.648Z,61.90
2017-08-04T21:58:53.898Z,61.80
2017-08-04T22:01:22.160Z,61.90
2017-08-04T22:03:50.488Z,63.90
2017-08-04T22:06:18.740Z,64.60
2017-08-04T22:08:49.571Z,64.80
2017-08-04T22:11:17.856Z,64.70
2017-08-04T22:13:46.128Z,65.10
2017-08-04T22:16:15.188Z,65.80
2017-08-04T22:18:43.560Z,65.70
2017-08-04T22:21:11.824Z,66.20
2017-08-04T22:23:40.133Z,66.80
2017-08-04T22:26:08.399Z,67.10
2017-08-04T22:28:36.663Z,68.10
2017-08-04T22:31:05.992Z,68.40
2017-08-04T22:33:34.274Z,68.60
2017-08-04T22:36:03.305Z,69.30
2017-08-04T22:38:31.616Z,69.30
2017-08-04T22:40:59.896Z,70.00
2017-08-04T22:43:28.189Z,70.20
2017-08-04T22:45:56.496Z,69.70
2017-08-04T22:48:25.540Z,70.20
2017-08-04T22:50:53.823Z,70.10
2017-08-04T22:53:22.224Z,70.20
2017-08-04T22:55:50.487Z,70.30
2017-08-04T22:58:18.764Z,69.70
2017-08-04T23:00:47.065Z,70.30
2017-08-04T23:03:15.326Z,70.30
2017-08-04T23:05:44.613Z,69.60
2017-08-04T23:08:12.916Z,69.60
2017-08-04T23:10:41.175Z,70.30
2017-08-04T23:13:09.440Z,69.30
2017-08-04T23:15:37.733Z,69.70
2017-08-04T23:18:05.991Z,69.90
2017-08-04T23:20:34.252Z,69.40
2017-08-04T23:23:02.552Z,68.80
2017-08-04T23:25:31.591Z,69.90
2017-08-04T23:27:59.876Z,70.00
2017-08-04T23:30:28.175Z,70.40
2017-08-04T23:32:56.446Z,70.40
2017-08-04T23:35:24.717Z,70.40
2017-08-04T23:37:53.051Z,72.00
2017-08-04T23:40:22.099Z,70.50
2017-08-04T23:42:50.367Z,70.40
2017-08-04T23:45:18.676Z,70.50
2017-08-04T23:47:46.946Z,70.50
2017-08-04T23:50:15.213Z,72.10
2017-08-04T23:52:43.624Z,72.50
2017-08-04T23:55:11.889Z,72.60
2017-08-04T23:57:42.880Z,71.30
